createdAt,value
2018-08-27T00:01:46.462Z,97490.33
2018-08-27T00:04:18.289Z,97492.57
2018-08-27T00:06:49.388Z,97488.62
2018-08-27T00:09:21.786Z,97487.20
2018-08-27T00:11:56.509Z,97490.25
2018-08-27T00:14:27.488Z,97489.11
2018-08-27T00:16:58.680Z,97487.36
2018-08-27T00:19:37.376Z,97486.69
2018-08-27T00:22:09.300Z,97483.23
2018-08-27T00:24:40.337Z,97492.54
2018-08-27T00:27:12.516Z,97492.38
2018-08-27T00:29:45.480Z,97484.25
2018-08-27T00:37:51.317Z,97490.97
2018-08-27T00:40:20.233Z,97490.43
2018-08-27T00:42:51.519Z,97480.20
2018-08-27T00:45:20.795Z,97484.25
2018-08-27T00:47:49.851Z,97479.89
2018-08-27T00:50:19.090Z,97488.09
2018-08-27T00:52:48.126Z,97489.52
2018-08-27T00:55:17.082Z,97488.01
2018-08-27T00:57:45.945Z,97491.58
2018-08-27T01:00:14.887Z,97487.88
2018-08-27T01:02:43.807Z,97486.69
2018-08-27T01:05:12.842Z,97501.08
2018-08-27T01:07:42.967Z,97491.77
2018-08-27T01:10:12.773Z,97499.79
2018-08-27T01:12:42.507Z,97498.58
2018-08-27T01:15:11.385Z,97497.66
2018-08-27T01:17:40.238Z,97497.05
2018-08-27T01:20:09.166Z,97504.83
2018-08-27T01:22:38.799Z,97504.02
2018-08-27T01:25:07.643Z,97506.55
2018-08-27T01:27:43.398Z,97513.51
2018-08-27T01:30:12.947Z,97508.70
2018-08-27T01:32:42.945Z,97509.29
2018-08-27T01:35:12.880Z,97524.16
2018-08-27T01:37:42.904Z,97523.59
2018-08-27T01:40:11.975Z,97520.78
2018-08-27T01:42:41.176Z,97521.61
2018-08-27T01:45:10.097Z,97523.75
2018-08-27T01:47:38.905Z,97530.52
2018-08-27T01:50:08.177Z,97523.94
2018-08-27T01:52:37.103Z,97529.34
2018-08-27T01:55:06.362Z,97524.56
2018-08-27T01:57:35.186Z,97534.67
2018-08-27T02:00:04.106Z,97530.37
2018-08-27T02:02:33.029Z,97530.38
2018-08-27T02:05:02.223Z,97532.62
2018-08-27T02:07:31.068Z,97533.68
2018-08-27T02:10:00.013Z,97538.40
2018-08-27T02:12:28.846Z,97533.81
2018-08-27T02:14:57.779Z,97529.45
2018-08-27T02:17:26.647Z,97535.05
2018-08-27T02:19:55.815Z,97541.84
2018-08-27T02:22:24.638Z,97532.36
2018-08-27T02:24:53.408Z,97531.33
2018-08-27T02:27:22.243Z,97539.26
2018-08-27T02:29:51.663Z,97534.78
2018-08-27T02:32:20.538Z,97530.97
2018-08-27T02:34:49.367Z,97530.46
2018-08-27T02:37:18.372Z,97530.54
2018-08-27T02:39:47.568Z,97538.03
2018-08-27T02:42:17.223Z,97526.88
2018-08-27T02:44:46.069Z,97527.30
2018-08-27T02:47:14.880Z,97524.77
2018-08-27T02:49:44.818Z,97529.91
2018-08-27T02:52:14.755Z,97527.20
2018-08-27T02:54:44.690Z,97527.78
2018-08-27T02:57:14.245Z,97524.23
2018-08-27T02:59:43.345Z,97531.27
2018-08-27T03:02:12.518Z,97529.33
2018-08-27T03:04:41.420Z,97532.69
2018-08-27T03:07:10.675Z,97527.95
2018-08-27T03:09:39.611Z,97527.89
2018-08-27T03:12:08.815Z,97532.82
2018-08-27T03:14:37.766Z,97532.30
2018-08-27T03:17:06.918Z,97534.45
2018-08-27T03:19:35.838Z,97529.48
2018-08-27T03:22:04.749Z,97530.61
2018-08-27T03:24:33.619Z,97528.15
2018-08-27T03:29:36.524Z,97532.72
2018-08-27T03:32:05.344Z,97529.89
2018-08-27T03:34:34.220Z,97531.27
2018-08-27T03:37:03.075Z,97527.91
2018-08-27T03:39:31.907Z,97522.83
2018-08-27T03:42:00.687Z,97523.25
2018-08-27T03:44:29.646Z,97526.50
2018-08-27T03:46:59.868Z,97535.21
2018-08-27T03:49:28.681Z,97537.50
2018-08-27T03:51:58.420Z,97532.50
2018-08-27T03:54:27.351Z,97544.74
2018-08-27T03:56:56.357Z,97539.02
2018-08-27T03:59:25.286Z,97540.71
2018-08-27T04:01:54.608Z,97546.43
2018-08-27T04:04:29.621Z,97551.75
2018-08-27T04:06:58.820Z,97555.22
2018-08-27T04:09:27.933Z,97553.20
2018-08-27T04:14:32.095Z,97560.53
2018-08-27T04:17:01.446Z,97555.61
2018-08-27T04:19:30.360Z,97557.05
2018-08-27T04:22:00.010Z,97557.67
2018-08-27T04:24:29.388Z,97567.00
2018-08-27T04:26:58.297Z,97566.88
2018-08-27T04:29:27.365Z,97570.95
2018-08-27T04:31:58.885Z,97570.63
2018-08-27T04:34:27.872Z,97575.29
2018-08-27T04:36:56.858Z,97571.34
2018-08-27T04:39:25.990Z,97571.88
2018-08-27T04:41:54.869Z,97577.87
2018-08-27T04:44:23.855Z,97577.19
2018-08-27T04:46:53.231Z,97583.30
2018-08-27T04:49:22.137Z,97580.31
2018-08-27T04:51:50.874Z,97584.54
2018-08-27T04:54:19.923Z,97581.52
2018-08-27T04:56:49.093Z,97586.02
2018-08-27T04:59:20.742Z,97585.63
2018-08-27T05:01:50.005Z,97583.03
2018-08-27T05:04:18.973Z,97590.66
2018-08-27T05:06:49.449Z,97589.16
2018-08-27T05:09:18.701Z,97590.98
2018-08-27T05:11:48.631Z,97600.33
2018-08-27T05:14:17.808Z,97603.78
2018-08-27T05:16:47.385Z,97602.77
2018-08-27T05:19:18.124Z,97600.83
2018-08-27T05:21:47.016Z,97602.98
2018-08-27T05:24:15.837Z,97607.48
2018-08-27T05:26:44.952Z,97610.22
2018-08-27T05:29:13.803Z,97605.38
2018-08-27T05:31:42.649Z,97594.98
2018-08-27T05:34:11.856Z,97608.22
2018-08-27T05:36:42.073Z,97605.55
2018-08-27T05:39:11.132Z,97594.48
2018-08-27T05:41:40.834Z,97595.75
2018-08-27T05:44:10.724Z,97597.02
2018-08-27T05:46:40.031Z,97594.45
2018-08-27T05:49:09.187Z,97596.77
2018-08-27T05:51:37.978Z,97593.23
2018-08-27T05:54:13.338Z,97590.77
2018-08-27T05:56:42.303Z,97588.62
2018-08-27T05:59:12.809Z,97587.06
2018-08-27T06:01:41.960Z,97586.71
2018-08-27T06:04:10.801Z,97585.30
2018-08-27T06:06:46.690Z,97594.00
2018-08-27T06:09:22.452Z,97590.38
2018-08-27T06:11:52.226Z,97584.63
2018-08-27T06:14:21.582Z,97589.66
2018-08-27T06:16:50.532Z,97585.70
2018-08-27T06:19:20.502Z,97587.31
2018-08-27T06:21:51.853Z,97584.27
2018-08-27T06:24:22.085Z,97588.09
2018-08-27T06:29:34.111Z,97587.38
2018-08-27T06:32:03.225Z,97590.96
2018-08-27T06:34:32.000Z,97585.84
2018-08-27T06:37:00.934Z,97585.83
2018-08-27T06:39:29.772Z,97582.11
2018-08-27T06:41:58.880Z,97585.27
2018-08-27T06:44:29.547Z,97578.34
2018-08-27T06:46:59.277Z,97588.30
2018-08-27T06:49:28.379Z,97583.31
2018-08-27T06:54:32.584Z,97582.98
2018-08-27T06:57:01.805Z,97580.56
2018-08-27T06:59:32.457Z,97584.58
2018-08-27T07:02:01.315Z,97588.77
2018-08-27T07:04:30.241Z,97585.41
2018-08-27T07:09:33.415Z,97579.88
2018-08-27T07:12:02.428Z,97583.47
2018-08-27T07:14:32.063Z,97584.11
2018-08-27T07:17:00.948Z,97583.70
2018-08-27T07:19:29.764Z,97576.81
2018-08-27T07:21:59.116Z,97570.88
2018-08-27T07:24:28.037Z,97571.95
2018-08-27T07:26:57.940Z,97578.30
2018-08-27T07:29:26.831Z,97572.55
2018-08-27T07:34:30.240Z,97563.92
2018-08-27T07:36:59.127Z,97564.30
2018-08-27T07:39:28.278Z,97564.34
2018-08-27T07:41:57.208Z,97557.09
2018-08-27T07:44:26.164Z,97565.70
2018-08-27T07:46:55.028Z,97568.19
2018-08-27T07:49:23.829Z,97568.41
2018-08-27T07:51:52.761Z,97561.56
2018-08-27T07:54:21.595Z,97575.98
2018-08-27T07:56:51.620Z,97565.77
2018-08-27T07:59:20.732Z,97563.05
2018-08-27T08:01:50.117Z,97569.84
2018-08-27T08:04:20.343Z,97569.11
2018-08-27T08:06:50.368Z,97574.88
2018-08-27T08:09:25.139Z,97571.93
2018-08-27T08:11:54.682Z,97572.03
2018-08-27T08:14:23.606Z,97573.49
2018-08-27T08:16:52.490Z,97571.69
2018-08-27T08:19:21.632Z,97571.80
2018-08-27T08:21:50.500Z,97580.00
2018-08-27T08:24:20.627Z,97582.86
2018-08-27T08:26:51.209Z,97573.95
2018-08-27T08:29:21.228Z,97579.48
2018-08-27T08:31:50.613Z,97575.50
2018-08-27T08:34:20.608Z,97574.97
2018-08-27T08:39:25.151Z,97574.12
2018-08-27T08:41:54.141Z,97576.56
2018-08-27T08:44:23.557Z,97573.37
2018-08-27T08:46:52.521Z,97570.65
2018-08-27T08:49:21.895Z,97572.98
2018-08-27T08:51:51.255Z,97569.61
2018-08-27T08:54:21.292Z,97570.84
2018-08-27T08:56:52.585Z,97563.02
2018-08-27T08:59:21.593Z,97563.90
2018-08-27T09:01:51.509Z,97561.47
2018-08-27T09:04:21.676Z,97561.50
2018-08-27T09:06:51.387Z,97559.30
2018-08-27T09:09:22.924Z,97558.00
2018-08-27T09:11:51.768Z,97552.66
2018-08-27T09:14:21.612Z,97558.83
2018-08-27T09:16:51.766Z,97561.78
2018-08-27T09:19:21.934Z,97560.14
2018-08-27T09:24:25.884Z,97562.44
2018-08-27T09:26:54.783Z,97553.62
2018-08-27T09:29:23.691Z,97552.44
2018-08-27T09:37:02.294Z,97546.48
2018-08-27T09:39:31.223Z,97534.91
2018-08-27T09:42:00.460Z,97537.22
2018-08-27T09:44:29.532Z,97532.30
2018-08-27T09:46:59.118Z,97532.47
2018-08-27T09:49:28.144Z,97533.19
2018-08-27T09:51:57.195Z,97532.64
2018-08-27T09:54:26.132Z,97531.69
2018-08-27T09:56:55.250Z,97528.44
2018-08-27T09:59:24.185Z,97530.28
2018-08-27T10:01:59.107Z,97526.55
2018-08-27T10:04:27.997Z,97524.97
2018-08-27T10:06:57.396Z,97518.04
2018-08-27T10:09:26.780Z,97521.88
2018-08-27T10:11:57.794Z,97518.27
2018-08-27T10:14:26.656Z,97516.23
2018-08-27T10:16:59.467Z,97523.54
2018-08-27T10:19:28.358Z,97520.21
2018-08-27T10:21:58.551Z,97519.92
2018-08-27T10:24:27.637Z,97515.56
2018-08-27T10:26:56.638Z,97516.10
2018-08-27T10:29:25.506Z,97511.48
2018-08-27T10:31:54.456Z,97504.73
2018-08-27T10:34:23.296Z,97501.61
2018-08-27T10:36:52.412Z,97509.23
2018-08-27T10:39:23.843Z,97505.58
2018-08-27T10:41:52.632Z,97501.14
2018-08-27T10:44:21.663Z,97500.31
2018-08-27T10:46:50.421Z,97497.86
2018-08-27T10:49:19.167Z,97497.26
2018-08-27T10:51:48.042Z,97498.34
2018-08-27T10:54:17.098Z,97501.72
2018-08-27T10:56:46.229Z,97496.98
2018-08-27T10:59:15.044Z,97491.94
2018-08-27T11:01:43.833Z,97484.47
2018-08-27T11:04:12.963Z,97486.52
2018-08-27T11:06:42.370Z,97475.20
2018-08-27T11:09:11.984Z,97475.32
2018-08-27T11:11:40.851Z,97474.12
2018-08-27T11:14:09.788Z,97474.34
2018-08-27T11:16:38.747Z,97472.66
2018-08-27T11:19:08.337Z,97472.90
2018-08-27T11:21:37.359Z,97477.96
2018-08-27T11:24:22.599Z,97481.50
2018-08-27T11:26:51.654Z,97478.63
2018-08-27T11:29:20.832Z,97473.97
2018-08-27T11:31:49.725Z,97478.49
2018-08-27T11:34:18.804Z,97485.16
2018-08-27T11:36:47.720Z,97484.76
2018-08-27T11:39:16.834Z,97476.36
2018-08-27T11:41:45.766Z,97466.31
2018-08-27T11:44:14.622Z,97474.55
2018-08-27T11:46:43.774Z,97468.58
2018-08-27T11:49:12.615Z,97474.16
2018-08-27T11:51:42.309Z,97473.42
2018-08-27T11:54:12.718Z,97473.34
2018-08-27T11:56:42.292Z,97461.84
2018-08-27T11:59:12.308Z,97463.77
2018-08-27T12:01:41.123Z,97468.19
2018-08-27T12:04:10.142Z,97463.69
2018-08-27T12:06:39.294Z,97457.02
2018-08-27T12:09:10.275Z,97456.02
2018-08-27T12:11:39.155Z,97463.92
2018-08-27T12:14:09.978Z,97451.92
2018-08-27T12:16:39.067Z,97452.31
2018-08-27T12:19:09.758Z,97456.88
2018-08-27T12:21:38.794Z,97448.34
2018-08-27T12:24:07.677Z,97451.73
2018-08-27T12:26:36.596Z,97450.28
2018-08-27T12:29:05.638Z,97445.63
2018-08-27T12:31:35.075Z,97447.17
2018-08-27T12:34:04.065Z,97440.13
2018-08-27T12:36:33.980Z,97442.17
2018-08-27T12:39:04.037Z,97445.53
2018-08-27T12:41:32.932Z,97436.45
2018-08-27T12:44:01.785Z,97430.52
2018-08-27T12:49:04.969Z,97436.79
2018-08-27T12:51:34.316Z,97435.55
2018-08-27T12:54:03.444Z,97443.08
2018-08-27T12:56:32.925Z,97435.63
2018-08-27T12:59:01.920Z,97431.86
2018-08-27T13:01:30.970Z,97434.59
2018-08-27T13:04:01.079Z,97436.03
2018-08-27T13:06:30.072Z,97435.34
2018-08-27T13:08:58.986Z,97435.02
2018-08-27T13:11:28.051Z,97435.23
2018-08-27T13:13:56.855Z,97434.89
2018-08-27T13:16:25.694Z,97433.48
2018-08-27T13:18:55.387Z,97434.14
2018-08-27T13:21:31.621Z,97437.17
2018-08-27T13:26:35.027Z,97432.84
2018-08-27T13:29:04.905Z,97425.22
2018-08-27T13:31:33.949Z,97420.09
2018-08-27T13:36:37.793Z,97430.64
2018-08-27T13:39:08.331Z,97427.66
2018-08-27T13:41:37.400Z,97426.19
2018-08-27T13:44:12.254Z,97428.36
2018-08-27T13:46:41.517Z,97427.25
2018-08-27T13:49:10.366Z,97428.52
2018-08-27T13:51:48.427Z,97422.81
2018-08-27T13:54:17.964Z,97435.30
2018-08-27T13:56:46.881Z,97434.08
2018-08-27T13:59:15.849Z,97432.11
2018-08-27T14:01:44.837Z,97432.05
2018-08-27T14:04:13.709Z,97426.86
2018-08-27T14:06:43.609Z,97431.38
2018-08-27T14:09:13.551Z,97423.98
2018-08-27T14:11:43.518Z,97426.28
2018-08-27T14:14:16.401Z,97430.08
2018-08-27T14:16:47.404Z,97424.07
2018-08-27T14:19:16.245Z,97428.25
2018-08-27T14:21:45.666Z,97433.47
2018-08-27T14:24:15.597Z,97430.02
2018-08-27T14:26:45.608Z,97436.39
2018-08-27T14:29:15.172Z,97436.75
2018-08-27T14:31:44.702Z,97437.32
2018-08-27T14:34:15.093Z,97434.66
2018-08-27T14:36:44.270Z,97436.86
2018-08-27T14:39:14.128Z,97436.90
2018-08-27T14:41:44.044Z,97441.58
2018-08-27T14:44:16.049Z,97446.80
2018-08-27T14:46:44.932Z,97444.80
2018-08-27T14:49:13.967Z,97449.17
2018-08-27T14:51:43.937Z,97441.81
2018-08-27T14:54:13.789Z,97443.36
2018-08-27T14:56:46.432Z,97446.70
2018-08-27T14:59:19.668Z,97444.43
2018-08-27T15:01:54.671Z,97450.09
2018-08-27T15:04:29.599Z,97449.33
2018-08-27T15:07:03.050Z,97445.86
2018-08-27T15:09:37.193Z,97446.63
2018-08-27T15:12:10.718Z,97444.32
2018-08-27T15:14:47.281Z,97440.75
2018-08-27T15:17:24.547Z,97444.01
2018-08-27T15:19:58.480Z,97443.70
2018-08-27T15:25:25.638Z,97440.91
2018-08-27T15:27:59.971Z,97441.86
2018-08-27T15:30:39.173Z,97441.04
2018-08-27T15:33:10.064Z,97440.66
2018-08-27T15:35:41.303Z,97432.33
2018-08-27T15:38:13.536Z,97434.94
2018-08-27T15:40:46.296Z,97432.47
2018-08-27T15:43:20.267Z,97430.94
2018-08-27T15:50:56.681Z,97431.03
2018-08-27T15:53:30.453Z,97432.06
2018-08-27T15:58:46.524Z,97423.52
2018-08-27T16:01:18.456Z,97429.24
2018-08-27T16:03:55.512Z,97425.75
2018-08-27T16:06:34.913Z,97423.81
2018-08-27T16:09:09.837Z,97430.16
2018-08-27T16:11:41.964Z,97425.00
2018-08-27T16:14:14.264Z,97433.53
2018-08-27T16:16:46.680Z,97428.10
2018-08-27T16:19:17.840Z,97426.88
2018-08-27T16:21:51.615Z,97430.51
2018-08-27T16:24:24.972Z,97431.45
2018-08-27T16:26:56.590Z,97432.11
2018-08-27T16:29:32.330Z,97431.17
2018-08-27T16:32:04.814Z,97430.98
2018-08-27T16:34:37.684Z,97432.29
2018-08-27T16:37:10.695Z,97427.30
2018-08-27T16:39:43.264Z,97429.27
2018-08-27T16:42:14.477Z,97432.43
2018-08-27T16:44:48.345Z,97430.84
2018-08-27T16:47:20.471Z,97431.55
2018-08-27T16:49:52.337Z,97441.67
2018-08-27T16:52:24.296Z,97443.45
2018-08-27T16:54:55.026Z,97445.38
2018-08-27T16:57:25.781Z,97440.86
2018-08-27T16:59:58.109Z,97456.40
2018-08-27T17:02:29.186Z,97460.75
2018-08-27T17:05:00.974Z,97461.34
2018-08-27T17:07:32.471Z,97469.27
2018-08-27T17:10:06.149Z,97461.31
2018-08-27T17:12:37.991Z,97468.14
2018-08-27T17:17:45.719Z,97466.22
2018-08-27T17:20:17.948Z,97463.02
2018-08-27T17:25:35.824Z,97472.58
2018-08-27T17:28:04.884Z,97473.53
2018-08-27T17:30:34.063Z,97472.83
2018-08-27T17:33:04.349Z,97474.46
2018-08-27T17:35:34.571Z,97472.63
2018-08-27T17:38:08.565Z,97477.23
2018-08-27T17:40:42.545Z,97477.52
2018-08-27T17:43:15.930Z,97483.38
2018-08-27T17:45:49.481Z,97483.92
2018-08-27T17:48:27.010Z,97490.03
2018-08-27T17:51:01.920Z,97492.20
2018-08-27T17:53:33.044Z,97491.60
2018-08-27T17:56:04.298Z,97496.75
2018-08-27T17:58:38.087Z,97492.34
2018-08-27T18:01:08.760Z,97500.72
2018-08-27T18:03:39.869Z,97497.80
2018-08-27T18:06:10.683Z,97497.94
2018-08-27T18:08:44.830Z,97500.63
2018-08-27T18:11:20.528Z,97505.25
2018-08-27T18:13:52.767Z,97508.03
2018-08-27T18:16:27.453Z,97514.05
2018-08-27T18:18:58.748Z,97513.70
2018-08-27T18:21:29.324Z,97520.31
2018-08-27T18:24:00.084Z,97517.22
2018-08-27T18:26:32.549Z,97521.97
2018-08-27T18:29:05.534Z,97531.77
2018-08-27T18:31:38.680Z,97536.40
2018-08-27T18:34:10.341Z,97535.72
2018-08-27T18:36:45.288Z,97536.60
2018-08-27T18:39:18.505Z,97537.02
2018-08-27T18:41:51.675Z,97544.30
2018-08-27T18:44:23.056Z,97545.19
2018-08-27T18:46:54.496Z,97555.61
2018-08-27T18:49:26.261Z,97554.41
2018-08-27T18:51:57.450Z,97564.13
2018-08-27T18:54:28.419Z,97562.36
2018-08-27T18:56:59.563Z,97561.94
2018-08-27T18:59:31.888Z,97564.79
2018-08-27T19:02:03.217Z,97568.14
2018-08-27T19:04:35.287Z,97572.59
2018-08-27T19:07:09.992Z,97578.64
2018-08-27T19:09:41.689Z,97577.44
2018-08-27T19:12:13.762Z,97575.93
2018-08-27T19:14:45.597Z,97574.05
2018-08-27T19:17:17.200Z,97586.02
2018-08-27T19:19:49.724Z,97585.89
2018-08-27T19:22:22.141Z,97587.98
2018-08-27T19:24:55.526Z,97587.07
2018-08-27T19:27:26.940Z,97595.05
2018-08-27T19:30:00.278Z,97597.55
2018-08-27T19:32:35.292Z,97596.45
2018-08-27T19:35:06.383Z,97599.48
2018-08-27T19:37:46.421Z,97596.18
2018-08-27T19:40:18.468Z,97599.53
2018-08-27T19:42:52.216Z,97604.71
2018-08-27T19:45:23.969Z,97600.33
2018-08-27T19:47:55.267Z,97601.34
2018-08-27T19:50:28.334Z,97601.54
2018-08-27T19:53:01.531Z,97599.13
2018-08-27T19:55:36.724Z,97598.34
2018-08-27T19:58:10.477Z,97606.59
2018-08-27T20:00:43.926Z,97599.26
2018-08-27T20:03:15.137Z,97598.13
2018-08-27T20:05:49.179Z,97597.88
2018-08-27T20:08:24.160Z,97602.90
2018-08-27T20:10:58.103Z,97603.62
2018-08-27T20:13:31.340Z,97605.56
2018-08-27T20:16:02.523Z,97609.75
2018-08-27T20:18:33.749Z,97609.47
2018-08-27T20:21:06.857Z,97614.31
2018-08-27T20:23:38.879Z,97611.98
2018-08-27T20:26:09.575Z,97617.00
2018-08-27T20:28:40.683Z,97615.73
2018-08-27T20:31:12.205Z,97624.03
2018-08-27T20:33:44.296Z,97622.70
2018-08-27T20:36:16.496Z,97620.84
2018-08-27T20:38:47.648Z,97623.32
2018-08-27T20:41:24.546Z,97616.05
2018-08-27T20:43:55.677Z,97622.17
2018-08-27T20:46:29.251Z,97631.02
2018-08-27T20:49:00.403Z,97622.05
2018-08-27T20:51:33.609Z,97628.36
2018-08-27T20:54:04.776Z,97631.92
2018-08-27T20:56:36.777Z,97635.83
2018-08-27T20:59:13.564Z,97637.14
2018-08-27T21:01:46.666Z,97630.81
2018-08-27T21:04:19.038Z,97635.79
2018-08-27T21:06:50.053Z,97640.23
2018-08-27T21:09:22.297Z,97642.89
2018-08-27T21:11:53.427Z,97642.55
2018-08-27T21:15:18.657Z,97644.33
2018-08-27T21:17:54.435Z,97648.21
2018-08-27T21:20:31.575Z,97651.47
2018-08-27T21:25:49.205Z,97658.74
2018-08-27T21:28:25.157Z,97662.52
2018-08-27T21:30:57.386Z,97665.08
2018-08-27T21:33:34.562Z,97664.66
2018-08-27T21:36:12.150Z,97667.03
2018-08-27T21:38:51.470Z,97673.38
2018-08-27T21:41:23.560Z,97665.58
2018-08-27T21:43:59.199Z,97669.73
2018-08-27T21:46:34.641Z,97668.53
2018-08-27T21:49:10.572Z,97671.06
2018-08-27T21:54:27.558Z,97671.84
2018-08-27T21:57:00.143Z,97677.10
2018-08-27T21:59:33.196Z,97671.20
2018-08-27T22:02:17.005Z,97674.31
2018-08-27T22:04:51.075Z,97674.34
2018-08-27T22:07:24.454Z,97670.16
2018-08-27T22:09:58.746Z,97678.95
2018-08-27T22:12:31.672Z,97675.73
2018-08-27T22:15:04.185Z,97678.25
2018-08-27T22:17:46.467Z,97676.63
2018-08-27T22:20:23.731Z,97680.74
2018-08-27T22:23:01.083Z,97684.08
2018-08-27T22:25:35.538Z,97688.75
2018-08-27T22:28:09.746Z,97687.42
2018-08-27T22:30:49.234Z,97693.03
2018-08-27T22:36:07.809Z,97696.55
2018-08-27T22:38:40.343Z,97692.93
2018-08-27T22:41:20.511Z,97697.63
2018-08-27T22:46:34.161Z,97701.17
2018-08-27T22:49:11.015Z,97690.13
2018-08-27T22:51:47.212Z,97688.52
2018-08-27T22:54:21.432Z,97696.85
2018-08-27T22:56:59.732Z,97695.84
2018-08-27T22:59:40.188Z,97693.05
2018-08-27T23:02:14.095Z,97693.89
2018-08-27T23:07:35.942Z,97695.86
2018-08-27T23:10:12.176Z,97700.97
2018-08-27T23:12:51.371Z,97695.62
2018-08-27T23:15:28.079Z,97694.41
2018-08-27T23:20:46.522Z,97699.29
2018-08-27T23:23:24.223Z,97692.48
2018-08-27T23:26:01.700Z,97692.33
2018-08-27T23:28:42.237Z,97695.85
2018-08-27T23:31:20.565Z,97697.04
2018-08-27T23:34:00.008Z,97695.48
2018-08-27T23:36:36.300Z,97690.89
2018-08-27T23:39:16.287Z,97699.55
2018-08-27T23:41:52.502Z,97693.52
2018-08-27T23:44:33.839Z,97702.54
2018-08-27T23:47:09.984Z,97699.59
2018-08-27T23:49:46.622Z,97699.69
2018-08-27T23:55:04.933Z,97698.13
2018-08-27T23:57:39.041Z,97704.66
